Simmons Army Air Field
KFBG : now visible

Airfield :











YOU CAN JOIN US ON...

 
LOGIN :

Register | Disclaimer

   EN    FR    IT 

 









Legend :    VFR   Marginal VFR   IFR   Intensive IFR   Very Intensive IFR
Visi :
Ceiling :
>= 8 km
>= 3000ft
5 to 8 km
1000 to 3000 ft
1500m to 5 km
500 to 1000 ft
800 to 1500m
200 to 500 ft
< 800m
< 200 ft
Symbols :   Thunderstorms  Fog  Heavy snow  Heavy precipitations  Wind > 20 kt






- Airport Elevation : 244 ft


KFBG - Simmons Army Air Field

CURRENT METAR :
  • 110456Z AUTO 01003KT 10SM BKN006 OVC046 17/17 A3000 RMK AO2 SLP160 T01710169 402650168 $

EXPIRED METARs :
  • 110431Z AUTO 36004KT 10SM SCT007 BKN045 17/17 A3001 RMK AO2 SLP164 $
  • 110356Z AUTO 01004KT 10SM FEW085 BKN110 17/17 A2999 RMK AO2 SLP157 T01690167 $
  • 110256Z AUTO 00000KT 10SM BKN090 18/18 A2999 RMK AO2 RAE03RAB03E03 SLP157 P0000 60006 T01780176 52028 $
  • 110237Z AUTO 01003KT 10SM FEW049 SCT060 BKN080 18/18 A2998 RMK AO2 RAE03RAB03E03 PRESRR SLP154 52026 $
  • 110224Z AUTO 10005KT 10SM SCT045 OVC060 18/18 A2996 RMK AO2 RAE03RAB03E03 SLP147 52023 $
  • 110203Z AUTO 02006KT 10SM FEW027 BKN040 OVC047 19/18 A2998 RMK AO2 RAE03RAB03 SLP154 $
  • 110156Z AUTO 01007KT 9SM -RA FEW027 OVC039 19/18 A2998 RMK AO2 RAB40 SLP154 P0006 T01930180 $

TAF AMD TAF KFBG
Valid from the 11 at 04:00 until the 12 at 07:00 UTC


110410Z 1104/1207 VRB06KT 9000 -SHRA BKN100 QNH2992INS
TEMPO 1104/1105 05025G35KT 8000 -TSRA BKN035CB
BECMG 1108/1109 05010G18KT 9999 NSW FEW016 BKN020 QNH3004INS
BECMG 1201/1202 05006KT 9999 SCT030 QNH3014INS TX24/1121Z TN14/1112Z
KZDC FIR / North America



MET'MAP, your aeronautical weather chart ! - Copyright ORBIFLY December 2007 - Disclaimer

ORBIFLY MET'MAP TEAM :

Programming & Development : Alexandra Zaïnal
Concept & original design : Baudouin d'Aumeries
Assistance for programming : Marc-Olivier Méhu
Technical & hardware support : Manuel Goepfert

Contact : metmap@orbifly.com




SOURCES & CREDITS :

   NOAA       Earth
Advisory